SBCP/CAW METAR and TAF weather

Enter ICAO airport designator
Station Type Date Time Source
SBCP METAR 2024/04/17 19:00 UTC NOAA

SBCP 171900Z 07010KT 9999 FEW025 29/22 Q1011


Station Type Date Time Source
SBCP Decoded METAR 2024/04/17 19:00 UTC NOAA

Campos, Brazil (SBCP) 21-45S 041-20W 11M
Apr 17, 2024 - 03:00 PM EDT / 2024.04.17 1900 UTC
Wind: from the ENE (070 degrees) at 12 MPH (10 KT):0
Visibility: greater than 7 mile(s):0
Sky conditions: mostly clear
Temperature: 84 F (29 C)
Dew Point: 71 F (22 C)
Relative Humidity: 65%
Pressure (altimeter): 29.85 in. Hg (1011 hPa)
ob: SBCP 171900Z 07010KT 9999 FEW025 29/22 Q1011
cycle: 19

Station Type Date Time Source
SBCP TAF 2024/04/17 18:01 UTC NOAA